Time;durP1;ratioP1;P1;durP2;ratioP2;P2;SDS_P1;SDS_P2;PMS_P1;PMS_P2;Temp;Humidity;BMP_temperature;BMP_pressure;BME280_temperature;BME280_humidity;BME280_pressure;Samples;Min_cycle;Max_cycle;Signal;HPM_P1;HPM_P2
2023/01/04 00:04:12;;;;;;;50.30;25.10;;;;;;;2.13;94.31;99941.52;220175;1313;24796;-74
2023/01/04 00:09:14;;;;;;;59.20;27.90;;;;;;;2.20;94.58;99938.91;220141;1311;22717;-74
2023/01/04 00:14:18;;;;;;;72.40;31.30;;;;;;;2.21;94.44;99939.56;220091;1311;22210;-72
2023/01/04 00:19:19;;;;;;;63.40;27.80;;;;;;;2.22;94.56;99941.72;220025;1311;24141;-72
2023/01/04 00:24:21;;;;;;;72.50;31.70;;;;;;;2.17;94.38;99935.65;220173;1310;24996;-72
2023/01/04 00:29:23;;;;;;;83.50;39.00;;;;;;;2.10;94.56;99932.94;220163;1310;22171;-72
2023/01/04 00:34:30;;;;;;;81.70;38.10;;;;;;;2.08;94.80;99928.83;220156;1310;24106;-72
2023/01/04 00:39:32;;;;;;;81.70;33.80;;;;;;;2.02;94.87;99927.45;219987;1310;24291;-72
2023/01/04 00:44:34;;;;;;;80.40;35.10;;;;;;;1.97;94.97;99921.60;219836;1295;22156;-72
2023/01/04 00:49:36;;;;;;;77.50;35.30;;;;;;;1.89;94.98;99924.73;219970;1310;24075;-73
2023/01/04 00:54:37;;;;;;;61.40;28.60;;;;;;;1.85;95.19;99924.20;220066;1295;24134;-73
2023/01/04 00:59:39;;;;;;;69.00;29.40;;;;;;;1.78;95.23;99923.30;220193;1309;24143;-73
2023/01/04 01:04:41;;;;;;;78.90;34.50;;;;;;;1.68;95.40;99923.65;220012;1310;24159;-73
2023/01/04 01:09:43;;;;;;;80.20;38.20;;;;;;;1.49;94.85;99930.98;220142;1310;22175;-73
2023/01/04 01:14:45;;;;;;;93.70;42.70;;;;;;;1.28;94.58;99939.58;220143;1295;24132;-73
2023/01/04 01:19:46;;;;;;;93.40;38.30;;;;;;;1.15;94.98;99936.65;219997;1310;24192;-73
2023/01/04 01:24:48;;;;;;;87.20;39.60;;;;;;;1.10;95.48;99935.74;220059;1294;24202;-73
2023/01/04 01:29:50;;;;;;;97.90;38.80;;;;;;;1.03;95.61;99935.52;220060;1310;25618;-73
2023/01/04 01:34:52;;;;;;;108.00;42.90;;;;;;;0.95;95.92;99935.36;220108;1310;24803;-73
2023/01/04 01:39:54;;;;;;;105.60;43.00;;;;;;;0.86;95.76;99934.22;220025;1310;24100;-73
2023/01/04 01:44:58;;;;;;;106.40;44.20;;;;;;;0.75;95.72;99938.34;220166;1310;24203;-73
2023/01/04 01:50:01;;;;;;;125.40;50.20;;;;;;;0.66;95.77;99941.10;219839;1310;24992;-73
2023/01/04 01:55:08;;;;;;;116.00;49.10;;;;;;;0.63;96.34;99939.63;219955;1295;24331;-73
2023/01/04 02:00:12;;;;;;;109.80;47.00;;;;;;;0.62;96.49;99932.84;219949;1310;24115;-73
2023/01/04 02:05:18;;;;;;;107.50;50.00;;;;;;;0.58;96.42;99923.47;220050;1294;24143;-72
2023/01/04 02:10:20;;;;;;;109.20;48.10;;;;;;;0.55;96.47;99917.35;220129;1307;24184;-72
2023/01/04 02:15:27;;;;;;;113.20;45.50;;;;;;;0.50;96.30;99912.61;220058;1305;24934;-73
2023/01/04 02:20:35;;;;;;;99.40;46.10;;;;;;;0.46;96.44;99909.23;220097;1310;24628;-73
2023/01/04 02:26:04;;;;;;;91.20;40.30;;;;;;;0.44;96.50;99903.58;219898;1295;24571;-73
2023/01/04 02:31:28;;;;;;;96.90;40.80;;;;;;;0.40;96.55;99902.83;220185;1310;23717;-73
2023/01/04 02:36:47;;;;;;;94.20;42.00;;;;;;;0.38;96.61;99897.86;220142;1300;24458;-73
2023/01/04 02:41:53;;;;;;;97.40;44.70;;;;;;;0.35;96.68;99892.45;220073;1310;22096;-72
2023/01/04 02:50:29;;;;;;;96.50;42.80;;;;;;;0.32;96.78;99882.01;220068;1302;24947;-72
2023/01/04 02:52:40;;;;;;;96.50;44.50;;;;;;;0.31;96.96;99886.74;220056;1305;24144;-72
2023/01/04 02:58:01;;;;;;;94.60;41.90;;;;;;;0.29;96.94;99878.17;220141;1310;24689;-73
2023/01/04 03:08:48;;;;;;;83.30;38.10;;;;;;;0.22;97.02;99858.21;220078;1310;22897;-73
2023/01/04 03:13:49;;;;;;;75.30;32.50;;;;;;;0.18;96.93;99857.95;219988;1310;22147;-73
2023/01/04 03:18:56;;;;;;;73.10;32.00;;;;;;;0.15;97.07;99852.30;219996;1307;22228;-73
2023/01/04 03:35:21;;;;;;;60.00;28.30;;;;;;;0.05;97.01;99832.94;220068;1310;25642;-73
2023/01/04 03:51:22;;;;;;;53.40;24.30;;;;;;;-0.02;97.31;99823.54;220073;1302;24902;-74
2023/01/04 03:56:28;;;;;;;45.90;22.30;;;;;;;-0.04;97.47;99825.08;220059;1310;22157;-73
2023/01/04 04:01:30;;;;;;;45.50;23.20;;;;;;;-0.04;97.55;99826.61;220024;1310;22073;-73
2023/01/04 04:11:52;;;;;;;49.60;22.90;;;;;;;-0.04;97.98;99814.26;220182;1310;24835;-73
2023/01/04 04:16:54;;;;;;;46.20;20.20;;;;;;;-0.05;97.73;99811.29;220016;1310;22110;-72
2023/01/04 04:21:56;;;;;;;43.10;21.00;;;;;;;-0.06;97.94;99814.39;220045;1296;22908;-72
2023/01/04 04:26:58;;;;;;;33.90;15.50;;;;;;;-0.05;98.06;99799.94;220034;1310;22186;-72
2023/01/04 04:31:59;;;;;;;38.30;19.00;;;;;;;-0.05;98.16;99794.83;220152;1302;23129;-72
2023/01/04 04:37:02;;;;;;;40.90;19.30;;;;;;;-0.04;98.37;99780.77;219825;1310;24123;-72
2023/01/04 04:42:04;;;;;;;33.00;18.10;;;;;;;-0.03;98.37;99782.98;219970;1310;22109;-73
2023/01/04 04:47:05;;;;;;;39.30;18.40;;;;;;;-0.01;98.92;99782.70;220042;1310;24188;-73
2023/01/04 04:52:07;;;;;;;39.50;18.60;;;;;;;0.01;98.81;99773.86;220074;1295;22089;-73
2023/01/04 04:57:09;;;;;;;39.10;20.10;;;;;;;0.01;98.81;99766.21;220096;1310;22922;-74
2023/01/04 05:02:11;;;;;;;50.30;21.90;;;;;;;-0.00;98.89;99757.16;220162;1309;24188;-73
2023/01/04 05:07:12;;;;;;;43.80;23.40;;;;;;;-0.00;98.98;99747.16;220094;1310;22127;-72
2023/01/04 05:17:35;;;;;;;27.00;14.10;;;;;;;0.02;99.26;99738.95;220205;1310;22961;-72
2023/01/04 05:22:37;;;;;;;29.70;14.90;;;;;;;0.06;99.77;99739.85;220211;1295;22139;-72
2023/01/04 05:27:39;;;;;;;33.00;16.60;;;;;;;0.12;99.90;99728.56;220176;1310;22177;-72
2023/01/04 05:32:41;;;;;;;31.70;16.40;;;;;;;0.18;100.00;99732.40;220078;1310;22290;-72
2023/01/04 05:37:42;;;;;;;35.20;16.40;;;;;;;0.24;100.00;99739.56;219842;1310;22223;-74
2023/01/04 05:42:44;;;;;;;38.90;18.70;;;;;;;0.29;100.00;99731.86;220192;1310;24191;-74
2023/01/04 05:47:50;;;;;;;34.90;16.90;;;;;;;0.30;100.00;99725.75;220048;1310;24120;-74
2023/01/04 05:52:52;;;;;;;31.50;16.60;;;;;;;0.28;100.00;99712.77;219963;1297;24158;-73
2023/01/04 05:57:54;;;;;;;37.40;17.60;;;;;;;0.29;100.00;99711.15;220103;1310;25274;-73
2023/01/04 06:02:56;;;;;;;35.80;17.70;;;;;;;0.31;100.00;99713.15;219895;1310;24347;-73
2023/01/04 06:07:58;;;;;;;38.20;18.80;;;;;;;0.32;100.00;99726.57;220119;1305;24346;-73
2023/01/04 06:12:59;;;;;;;35.30;18.00;;;;;;;0.31;100.00;99719.08;220223;1294;24293;-74
2023/01/04 06:18:01;;;;;;;36.70;17.40;;;;;;;0.30;100.00;99716.47;220064;1309;22147;-73
2023/01/04 06:23:03;;;;;;;38.70;17.10;;;;;;;0.27;100.00;99716.30;220178;1297;24139;-73
2023/01/04 06:28:04;;;;;;;40.50;18.80;;;;;;;0.25;100.00;99711.30;220187;1310;24804;-73
2023/01/04 06:33:06;;;;;;;41.20;18.40;;;;;;;0.24;100.00;99714.79;219984;1292;24846;-73
2023/01/04 06:38:08;;;;;;;37.20;18.00;;;;;;;0.20;100.00;99705.05;220158;1311;25517;-74
2023/01/04 06:43:10;;;;;;;34.60;17.20;;;;;;;0.17;100.00;99702.48;219882;1294;24325;-72
2023/01/04 06:48:11;;;;;;;38.00;17.30;;;;;;;0.16;100.00;99696.59;219981;1288;25916;-72
2023/01/04 06:53:19;;;;;;;35.10;17.60;;;;;;;0.15;100.00;99688.33;220159;1292;24258;-73
2023/01/04 06:58:20;;;;;;;37.10;16.20;;;;;;;0.15;100.00;99687.91;219992;1288;22267;-73
2023/01/04 07:03:22;;;;;;;35.80;18.70;;;;;;;0.18;100.00;99677.27;219667;1281;145414;-72
2023/01/04 07:08:24;;;;;;;34.60;17.00;;;;;;;0.20;100.00;99666.64;219992;1287;139319;-73
2023/01/04 07:13:26;;;;;;;36.80;16.30;;;;;;;0.24;100.00;99662.77;219707;1281;138673;-75
2023/01/04 07:18:28;;;;;;;34.20;16.00;;;;;;;0.28;100.00;99671.54;219733;1287;138573;-73
2023/01/04 07:23:30;;;;;;;34.40;17.10;;;;;;;0.33;100.00;99676.30;220100;1281;22188;-74
2023/01/04 07:33:52;;;;;;;33.20;15.30;;;;;;;0.44;100.00;99685.84;219567;1280;138564;-73
2023/01/04 07:38:53;;;;;;;28.70;14.20;;;;;;;0.49;100.00;99690.38;219739;1284;138661;-74
2023/01/04 07:43:55;;;;;;;29.60;14.00;;;;;;;0.52;100.00;99682.77;219621;1282;138735;-73
2023/01/04 07:48:57;;;;;;;40.20;16.80;;;;;;;0.57;100.00;99680.69;219606;1287;139271;-73
2023/01/04 07:53:59;;;;;;;37.70;18.10;;;;;;;0.63;100.00;99670.52;219670;1287;139240;-74
2023/01/04 07:59:01;;;;;;;39.40;20.30;;;;;;;0.73;100.00;99661.52;220329;1288;22805;-74
2023/01/04 08:04:05;;;;;;;29.90;15.40;;;;;;;0.85;100.00;99659.81;219897;1281;138365;-74
2023/01/04 08:09:07;;;;;;;44.70;20.00;;;;;;;0.94;100.00;99653.07;219633;1291;139491;-74
2023/01/04 08:14:09;;;;;;;45.00;18.90;;;;;;;1.10;100.00;99651.84;219769;1298;138532;-75
2023/01/04 08:19:17;;;;;;;36.20;16.60;;;;;;;1.24;100.00;99649.15;219756;1288;138580;-74
2023/01/04 08:24:19;;;;;;;37.60;17.50;;;;;;;1.71;100.00;99646.23;219852;1284;139031;-73
2023/01/04 08:29:20;;;;;;;31.60;14.90;;;;;;;1.93;100.00;99646.27;219896;1290;25324;-74
2023/01/04 08:34:22;;;;;;;34.10;14.30;;;;;;;1.97;100.00;99639.84;219834;1288;138787;-72
2023/01/04 08:39:24;;;;;;;27.30;12.60;;;;;;;2.07;100.00;99639.42;219982;1281;139176;-72
2023/01/04 08:44:26;;;;;;;23.10;11.70;;;;;;;2.20;100.00;99636.30;219880;1284;139182;-73
2023/01/04 08:49:28;;;;;;;22.60;10.80;;;;;;;2.37;100.00;99626.48;219801;1281;139223;-73
2023/01/04 08:54:31;;;;;;;22.20;10.50;;;;;;;2.53;100.00;99618.23;219792;1295;139148;-73
2023/01/04 08:59:33;;;;;;;24.80;10.70;;;;;;;2.67;100.00;99611.38;219725;1295;22113;-74
2023/01/04 09:04:35;;;;;;;19.40;9.40;;;;;;;2.93;100.00;99605.59;219870;1287;138292;-74
2023/01/04 09:09:37;;;;;;;20.20;9.80;;;;;;;3.41;99.89;99607.75;219778;1287;138277;-74
2023/01/04 09:14:38;;;;;;;22.30;11.20;;;;;;;3.46;98.94;99614.02;219684;1287;138969;-74
2023/01/04 09:19:40;;;;;;;21.40;10.40;;;;;;;3.46;98.23;99607.79;220022;1281;138925;-73
2023/01/04 09:24:42;;;;;;;25.30;10.70;;;;;;;3.48;97.79;99597.23;219957;1287;139029;-74
2023/01/04 09:29:44;;;;;;;21.10;10.80;;;;;;;3.51;97.38;99595.59;219948;1281;138293;-74
2023/01/04 09:34:46;;;;;;;19.90;9.20;;;;;;;3.55;97.41;99577.84;220039;1295;25042;-73
2023/01/04 09:39:47;;;;;;;20.50;10.10;;;;;;;3.61;97.07;99566.23;219706;1286;138059;-74
2023/01/04 09:44:53;;;;;;;20.00;10.10;;;;;;;3.68;96.80;99548.87;219934;1295;139243;-74
2023/01/04 09:50:35;;;;;;;18.70;9.40;;;;;;;3.76;96.78;99548.80;219925;1297;138510;-73
2023/01/04 09:55:46;;;;;;;17.20;9.10;;;;;;;3.92;96.87;99528.94;219866;1281;138824;-72
2023/01/04 10:01:13;;;;;;;15.80;8.30;;;;;;;4.06;96.21;99524.80;219953;1281;138840;-72
2023/01/04 10:06:15;;;;;;;19.20;9.00;;;;;;;4.15;95.78;99521.51;219766;1284;138584;-72
2023/01/04 10:11:32;;;;;;;17.10;9.60;;;;;;;4.24;96.01;99507.00;219976;1289;24166;-75
2023/01/04 10:16:53;;;;;;;18.30;9.10;;;;;;;4.39;95.48;99500.84;219625;1288;138409;-72
2023/01/04 10:22:26;;;;;;;16.30;9.00;;;;;;;4.53;94.96;99482.45;219800;1287;138174;-72
2023/01/04 10:27:43;;;;;;;17.20;8.50;;;;;;;4.63;94.84;99469.35;219678;1289;138910;-72
2023/01/04 10:32:54;;;;;;;17.20;8.80;;;;;;;4.77;95.00;99450.43;219741;1297;139275;-72
2023/01/04 10:38:09;;;;;;;14.50;8.10;;;;;;;4.96;94.90;99429.70;219636;1287;138773;-71
2023/01/04 10:43:32;;;;;;;15.10;7.60;;;;;;;5.18;94.70;99425.40;219761;1288;138870;-73
2023/01/04 10:49:15;;;;;;;15.70;8.20;;;;;;;5.30;93.04;99425.08;219840;1288;139037;-72
2023/01/04 10:54:32;;;;;;;11.40;6.40;;;;;;;5.40;93.12;99410.55;219677;1281;138745;-72
2023/01/04 10:59:49;;;;;;;13.50;7.20;;;;;;;5.53;92.69;99401.68;219779;1287;24167;-74
2023/01/04 11:05:08;;;;;;;11.60;6.70;;;;;;;5.57;91.95;99395.38;219615;1288;23382;-73
2023/01/04 11:10:17;;;;;;;12.60;6.20;;;;;;;5.61;91.95;99377.00;219691;1288;139198;-72
2023/01/04 11:15:19;;;;;;;6.80;4.50;;;;;;;5.65;91.53;99350.38;219473;1288;138501;-73
2023/01/04 11:20:21;;;;;;;6.00;4.30;;;;;;;5.73;91.11;99341.03;219634;1291;139113;-75
2023/01/04 11:25:34;;;;;;;6.50;4.40;;;;;;;5.80;90.20;99331.10;219712;1287;138815;-75
2023/01/04 11:30:47;;;;;;;8.30;3.90;;;;;;;5.82;89.53;99318.21;219870;1288;138755;-77
2023/01/04 11:35:52;;;;;;;7.90;4.20;;;;;;;5.86;89.20;99307.14;219909;1280;137978;-73
2023/01/04 11:41:05;;;;;;;7.50;3.90;;;;;;;5.88;88.83;99299.98;219998;1294;24247;-75
2023/01/04 11:46:21;;;;;;;7.00;3.70;;;;;;;5.90;88.44;99288.16;219743;1305;138163;-74
2023/01/04 11:51:26;;;;;;;6.10;3.60;;;;;;;5.93;88.42;99289.59;219740;1291;137973;-74
2023/01/04 11:56:30;;;;;;;5.70;4.10;;;;;;;5.97;88.05;99280.98;219467;1309;140743;-73
2023/01/04 12:01:35;;;;;;;8.70;4.00;;;;;;;6.01;88.14;99263.45;219724;1297;138521;-74
2023/01/04 12:06:47;;;;;;;6.70;3.90;;;;;;;6.01;87.18;99258.92;219735;1290;138262;-74
2023/01/04 12:11:55;;;;;;;6.50;3.70;;;;;;;5.93;87.20;99254.43;219871;1294;138027;-73
2023/01/04 12:17:12;;;;;;;8.00;4.40;;;;;;;5.90;87.32;99247.32;219855;1284;22965;-74
2023/01/04 12:22:37;;;;;;;8.30;4.00;;;;;;;5.90;87.32;99230.40;219814;1295;137971;-73
2023/01/04 12:27:46;;;;;;;7.20;3.60;;;;;;;5.91;87.13;99223.40;219875;1296;138840;-75
2023/01/04 12:32:48;;;;;;;6.60;3.90;;;;;;;5.90;87.12;99210.46;219979;1284;138869;-72
2023/01/04 12:37:50;;;;;;;7.10;4.00;;;;;;;5.88;87.22;99196.17;219887;1287;138630;-75
2023/01/04 12:43:13;;;;;;;6.50;3.80;;;;;;;5.86;87.47;99190.99;219916;1287;138148;-72
2023/01/04 12:54:30;;;;;;;6.60;3.80;;;;;;;5.88;86.53;99158.20;220039;1294;138549;-75
2023/01/04 12:59:35;;;;;;;8.30;4.20;;;;;;;5.89;86.58;99137.59;219985;1287;24682;-72
2023/01/04 13:04:40;;;;;;;7.10;3.60;;;;;;;5.88;86.73;99144.55;219896;1287;137689;-72
2023/01/04 13:09:49;;;;;;;6.20;3.60;;;;;;;5.90;87.21;99138.77;219875;1281;138559;-73
2023/01/04 13:14:57;;;;;;;7.50;4.80;;;;;;;5.87;87.21;99125.19;219805;1295;138921;-73
2023/01/04 13:20:12;;;;;;;7.80;4.70;;;;;;;5.83;87.40;99107.55;219649;1294;138044;-73
2023/01/04 13:25:16;;;;;;;4.50;2.90;;;;;;;5.80;87.41;99086.71;219791;1290;138064;-73
2023/01/04 13:30:36;;;;;;;5.50;3.50;;;;;;;5.81;87.51;99077.74;219864;1297;138884;-73
2023/01/04 13:35:38;;;;;;;7.10;4.30;;;;;;;5.86;87.78;99067.73;219814;1289;22183;-73
2023/01/04 13:40:45;;;;;;;7.00;4.30;;;;;;;5.91;87.71;99047.42;219913;1295;137701;-70
2023/01/04 13:45:56;;;;;;;7.00;4.60;;;;;;;5.96;87.60;99044.81;219694;1287;138801;-73
2023/01/04 13:51:35;;;;;;;5.90;3.60;;;;;;;5.97;87.97;99043.73;220062;1294;138225;-74
2023/01/04 13:56:38;;;;;;;7.70;4.40;;;;;;;5.96;88.24;99035.66;219898;1296;139353;-72
2023/01/04 14:01:44;;;;;;;6.50;4.00;;;;;;;5.95;88.55;99052.45;219990;1289;138079;-73
2023/01/04 14:06:48;;;;;;;6.40;4.00;;;;;;;5.95;88.58;99052.46;220024;1287;138061;-74
2023/01/04 14:12:00;;;;;;;6.00;3.60;;;;;;;5.95;88.91;99044.59;219771;1291;139133;-73
2023/01/04 14:17:19;;;;;;;7.60;3.60;;;;;;;5.95;89.08;99030.23;220003;1287;22753;-73
2023/01/04 14:22:33;;;;;;;6.70;4.40;;;;;;;5.95;89.47;99012.36;219914;1294;137782;-72
2023/01/04 14:27:36;;;;;;;5.80;3.80;;;;;;;5.94;89.79;98993.56;219657;1290;138114;-72
2023/01/04 14:32:37;;;;;;;7.70;4.50;;;;;;;5.96;89.74;98996.75;219819;1288;138158;-74
2023/01/04 14:37:40;;;;;;;8.00;4.40;;;;;;;6.00;90.11;98977.16;219911;1294;138630;-73
2023/01/04 14:42:41;;;;;;;7.70;4.30;;;;;;;6.03;89.98;98966.98;219858;1281;138978;-74
2023/01/04 14:47:43;;;;;;;7.30;4.70;;;;;;;6.04;89.99;98979.17;219772;1291;22945;-75
2023/01/04 14:52:52;;;;;;;7.00;4.90;;;;;;;6.04;90.98;98966.83;220105;1284;22200;-73
2023/01/04 14:57:54;;;;;;;5.30;3.90;;;;;;;5.99;91.90;98959.70;219161;1284;137947;-74
2023/01/04 15:02:56;;;;;;;7.10;4.50;;;;;;;5.90;92.27;98955.36;214533;1292;138040;-78
2023/01/04 15:08:00;;;;;;;10.20;5.10;;;;;;;5.77;93.20;98939.73;214529;1303;22475;-77
2023/01/04 15:13:03;;;;;;;8.90;4.30;;;;;;;5.65;94.63;98927.49;214385;1302;23206;-77
2023/01/04 15:18:05;;;;;;;8.40;5.30;;;;;;;5.57;95.39;98937.94;214502;1289;22478;-76
2023/01/04 15:23:08;;;;;;;10.60;5.60;;;;;;;5.45;96.94;98929.00;214121;1279;25267;-77
2023/01/04 15:28:09;;;;;;;9.00;4.90;;;;;;;5.37;97.95;98920.09;214087;1290;22486;-79
2023/01/04 15:33:11;;;;;;;10.70;5.90;;;;;;;5.32;99.42;98902.73;214234;1313;22514;-79
2023/01/04 15:38:16;;;;;;;7.20;4.60;;;;;;;5.25;100.00;98896.67;214009;1312;22474;-77
2023/01/04 15:43:19;;;;;;;8.20;4.90;;;;;;;5.20;100.00;98878.12;214103;1312;22523;-77
2023/01/04 15:48:21;;;;;;;11.10;6.30;;;;;;;5.15;100.00;98863.46;214113;1312;25286;-77
2023/01/04 15:53:22;;;;;;;11.60;6.40;;;;;;;5.11;100.00;98876.33;214143;1312;25216;-77
2023/01/04 15:58:24;;;;;;;14.10;6.30;;;;;;;5.08;100.00;98856.92;214074;1312;25295;-76
2023/01/04 16:03:26;;;;;;;11.00;6.40;;;;;;;5.07;100.00;98851.45;213905;1313;25460;-77
2023/01/04 16:08:30;;;;;;;13.10;6.60;;;;;;;5.07;100.00;98853.35;214116;1311;22685;-77
2023/01/04 16:13:31;;;;;;;12.50;6.50;;;;;;;5.08;100.00;98869.40;214018;1312;23811;-78
2023/01/04 16:18:34;;;;;;;11.70;5.20;;;;;;;5.10;100.00;98864.47;213843;1310;26477;-77
2023/01/04 16:23:36;;;;;;;10.30;5.90;;;;;;;5.10;100.00;98846.48;214084;1313;25335;-78
2023/01/04 16:28:38;;;;;;;14.80;6.30;;;;;;;5.11;100.00;98814.61;214043;1312;25262;-78
2023/01/04 16:33:41;;;;;;;14.50;6.50;;;;;;;5.12;100.00;98799.77;214068;1311;24348;-77
2023/01/04 16:38:44;;;;;;;11.00;6.10;;;;;;;5.11;100.00;98793.06;214105;1311;22531;-77
2023/01/04 16:43:49;;;;;;;11.90;6.30;;;;;;;5.12;100.00;98782.48;214069;1312;22476;-77
2023/01/04 16:48:57;;;;;;;11.20;6.00;;;;;;;5.12;100.00;98780.11;214019;1311;22472;-79
2023/01/04 16:54:05;;;;;;;10.50;6.00;;;;;;;5.14;100.00;98781.93;214002;1311;25444;-78
2023/01/04 16:59:07;;;;;;;10.00;5.40;;;;;;;5.17;100.00;98767.46;213892;1311;22479;-79
2023/01/04 17:04:10;;;;;;;9.90;5.00;;;;;;;5.20;100.00;98757.27;213817;1311;24564;-77
2023/01/04 17:09:14;;;;;;;10.10;5.10;;;;;;;5.23;100.00;98746.95;214169;1310;25424;-78
2023/01/04 17:14:16;;;;;;;8.80;5.00;;;;;;;5.27;100.00;98734.77;214164;1310;22439;-78
2023/01/04 17:19:18;;;;;;;9.40;4.50;;;;;;;5.31;100.00;98728.36;214060;1310;25276;-77
2023/01/04 17:24:20;;;;;;;10.00;4.70;;;;;;;5.35;100.00;98734.81;214057;1310;24321;-77
2023/01/04 17:29:22;;;;;;;8.80;5.00;;;;;;;5.42;100.00;98733.13;214236;1310;22481;-77
2023/01/04 17:34:24;;;;;;;9.20;4.60;;;;;;;5.48;100.00;98713.45;213828;1310;25518;-77
2023/01/04 17:39:29;;;;;;;7.40;4.50;;;;;;;5.54;100.00;98714.38;213954;1310;22517;-77
2023/01/04 17:44:31;;;;;;;6.80;4.10;;;;;;;5.63;100.00;98716.67;213952;1310;26486;-78
2023/01/04 17:49:33;;;;;;;8.30;4.50;;;;;;;5.72;100.00;98699.23;214163;1310;22535;-76
2023/01/04 17:54:35;;;;;;;7.30;4.20;;;;;;;5.80;100.00;98685.61;214054;1310;26337;-77
2023/01/04 17:59:36;;;;;;;6.30;3.80;;;;;;;5.88;99.98;98662.61;213813;1310;22528;-76
2023/01/04 18:04:38;;;;;;;7.00;4.10;;;;;;;5.94;99.96;98673.06;214022;1310;22602;-76
2023/01/04 18:09:40;;;;;;;9.10;5.10;;;;;;;5.98;99.76;98665.23;214265;1310;22533;-78
2023/01/04 18:14:45;;;;;;;7.20;4.00;;;;;;;6.00;99.64;98649.87;214133;1311;25484;-74
2023/01/04 18:19:47;;;;;;;8.00;4.10;;;;;;;6.03;99.70;98640.95;214065;1310;22471;-77
2023/01/04 18:24:49;;;;;;;7.40;4.10;;;;;;;6.06;99.44;98639.69;214131;1310;22525;-78
2023/01/04 18:29:52;;;;;;;9.60;4.70;;;;;;;6.09;99.47;98639.42;214334;1310;22607;-76
2023/01/04 18:34:55;;;;;;;6.80;4.10;;;;;;;6.14;99.13;98630.39;214040;1310;22551;-77
2023/01/04 18:39:56;;;;;;;7.20;4.20;;;;;;;6.19;98.89;98625.88;214235;1310;25215;-77
2023/01/04 18:44:58;;;;;;;6.90;4.30;;;;;;;6.22;98.74;98624.56;214240;1311;24352;-77
2023/01/04 18:50:01;;;;;;;7.80;4.00;;;;;;;6.25;98.22;98624.88;213812;1310;22486;-78
2023/01/04 18:55:03;;;;;;;8.30;4.50;;;;;;;6.28;98.30;98618.44;214078;1311;22486;-78
2023/01/04 19:00:07;;;;;;;6.40;4.10;;;;;;;6.27;98.06;98619.73;214054;1310;22486;-78
2023/01/04 19:05:11;;;;;;;7.70;4.00;;;;;;;6.31;97.71;98618.94;213998;1310;22555;-77
2023/01/04 19:10:13;;;;;;;8.80;5.20;;;;;;;6.33;97.93;98605.32;214050;1310;22489;-76
2023/01/04 19:15:14;;;;;;;7.50;4.60;;;;;;;6.34;97.88;98593.99;214292;1310;24407;-76
2023/01/04 19:20:16;;;;;;;6.50;4.20;;;;;;;6.34;98.17;98576.47;214061;1310;22545;-78
2023/01/04 19:25:18;;;;;;;6.30;4.20;;;;;;;6.38;97.90;98557.96;214080;1310;22547;-78
2023/01/04 19:30:28;;;;;;;8.60;4.00;;;;;;;6.41;98.00;98559.29;214054;1310;22616;-76
2023/01/04 19:35:31;;;;;;;6.60;4.10;;;;;;;6.44;97.77;98554.71;214048;1306;23781;-78
2023/01/04 19:40:33;;;;;;;6.90;4.10;;;;;;;6.46;97.68;98534.34;214149;1310;22480;-76
2023/01/04 19:45:38;;;;;;;6.30;4.10;;;;;;;6.48;97.96;98524.17;214140;1310;25408;-77
2023/01/04 19:50:40;;;;;;;6.20;3.50;;;;;;;6.50;97.56;98522.41;214127;1310;22483;-77
2023/01/04 19:55:42;;;;;;;6.00;4.30;;;;;;;6.50;97.91;98521.55;214078;1299;22538;-78
2023/01/04 20:00:47;;;;;;;8.10;4.60;;;;;;;6.52;97.67;98530.71;214088;1310;25464;-76
2023/01/04 20:06:01;;;;;;;8.60;4.70;;;;;;;6.55;97.62;98535.29;213829;1310;175117;-76
2023/01/04 20:11:03;;;;;;;7.70;4.10;;;;;;;6.60;97.74;98538.48;214102;1310;22588;-75
2023/01/04 20:16:07;;;;;;;7.30;4.10;;;;;;;6.63;97.69;98538.09;214563;1310;22559;-77
2023/01/04 20:21:11;;;;;;;9.40;5.10;;;;;;;6.68;97.46;98521.00;214013;1310;25502;-79
2023/01/04 20:26:16;;;;;;;8.10;4.00;;;;;;;6.73;97.64;98510.62;214355;1310;22689;-76
2023/01/04 20:31:18;;;;;;;6.00;4.00;;;;;;;6.76;97.33;98505.88;214046;1310;25262;-75
2023/01/04 20:36:25;;;;;;;8.50;4.70;;;;;;;6.78;97.52;98499.42;214068;1310;23870;-76
2023/01/04 20:41:31;;;;;;;7.70;3.90;;;;;;;6.80;97.46;98500.31;214006;1310;24278;-75
2023/01/04 20:46:33;;;;;;;8.10;4.70;;;;;;;6.83;97.39;98497.48;214168;1310;22483;-77
2023/01/04 20:51:35;;;;;;;7.80;3.90;;;;;;;6.84;97.34;98483.96;214136;1310;24352;-76
2023/01/04 20:56:37;;;;;;;9.20;4.40;;;;;;;6.88;97.32;98478.10;213998;1309;26474;-78
2023/01/04 21:01:39;;;;;;;6.70;4.20;;;;;;;6.90;97.38;98471.01;214031;1311;25417;-76
2023/01/04 21:06:41;;;;;;;10.10;4.30;;;;;;;6.90;97.82;98467.13;214258;1310;24518;-77
2023/01/04 21:11:43;;;;;;;7.90;4.00;;;;;;;6.88;97.87;98455.52;214044;1310;22558;-79
2023/01/04 21:16:45;;;;;;;7.30;4.40;;;;;;;6.85;97.88;98443.81;214059;1310;25355;-78
2023/01/04 21:21:47;;;;;;;5.30;3.60;;;;;;;6.87;98.01;98426.41;214337;1310;22571;-78
2023/01/04 21:26:49;;;;;;;5.10;3.40;;;;;;;6.90;98.23;98429.19;214089;1310;22476;-78
2023/01/04 21:31:50;;;;;;;8.30;4.40;;;;;;;6.94;98.10;98438.13;213921;1310;22563;-78
2023/01/04 21:36:52;;;;;;;6.00;3.70;;;;;;;6.99;97.92;98439.48;214166;1310;26421;-78
2023/01/04 21:41:54;;;;;;;7.40;4.00;;;;;;;7.03;97.84;98432.72;214006;1310;22467;-79
2023/01/04 21:46:56;;;;;;;6.50;3.70;;;;;;;7.04;97.94;98409.43;214056;1310;22481;-76
2023/01/04 21:51:58;;;;;;;7.90;4.70;;;;;;;7.00;98.56;98393.20;214118;1310;24277;-77
2023/01/04 21:57:00;;;;;;;8.10;4.50;;;;;;;6.94;99.23;98374.75;214060;1310;26470;-78
2023/01/04 22:02:02;;;;;;;5.60;3.90;;;;;;;6.88;99.21;98371.55;214144;1310;25278;-78
2023/01/04 22:07:04;;;;;;;7.30;4.80;;;;;;;6.86;99.71;98378.58;213946;1310;23750;-77
2023/01/04 22:12:10;;;;;;;6.60;4.20;;;;;;;6.85;99.50;98369.59;214040;1310;22486;-78
2023/01/04 22:17:12;;;;;;;6.00;4.10;;;;;;;6.85;99.60;98382.85;214073;1310;24138;-75
2023/01/04 22:22:14;;;;;;;6.70;4.10;;;;;;;6.87;99.71;98376.92;213981;1310;22929;-75
2023/01/04 22:27:15;;;;;;;7.00;4.70;;;;;;;6.89;99.65;98378.98;214268;1310;22521;-78
2023/01/04 22:32:17;;;;;;;6.20;4.20;;;;;;;6.89;99.78;98374.30;214076;1310;24424;-78
2023/01/04 22:37:19;;;;;;;7.00;3.70;;;;;;;6.88;99.64;98370.73;214086;1310;24332;-76
2023/01/04 22:42:21;;;;;;;6.50;4.20;;;;;;;6.84;99.85;98365.16;213729;1310;24320;-76
2023/01/04 22:47:22;;;;;;;4.30;2.70;;;;;;;6.84;99.96;98354.24;214018;1310;22468;-75
2023/01/04 22:52:24;;;;;;;6.50;4.10;;;;;;;6.84;100.00;98358.77;214025;1310;22489;-77
2023/01/04 22:57:26;;;;;;;7.60;5.20;;;;;;;6.84;100.00;98352.95;214190;1310;22577;-77
2023/01/04 23:02:28;;;;;;;6.40;4.40;;;;;;;6.83;100.00;98340.63;214048;1310;26072;-78
2023/01/04 23:07:30;;;;;;;9.00;4.20;;;;;;;6.82;100.00;98325.19;214035;1310;23221;-78
2023/01/04 23:12:31;;;;;;;6.80;4.50;;;;;;;6.82;100.00;98319.02;213985;1310;25315;-77
2023/01/04 23:17:33;;;;;;;6.10;3.50;;;;;;;6.81;100.00;98304.95;213998;1310;25393;-77
2023/01/04 23:22:35;;;;;;;5.60;3.50;;;;;;;6.80;100.00;98297.60;214028;1310;26592;-78
2023/01/04 23:27:37;;;;;;;6.20;4.10;;;;;;;6.79;100.00;98279.36;214070;1310;25256;-78
2023/01/04 23:32:38;;;;;;;6.30;3.90;;;;;;;6.74;100.00;98257.13;214050;1310;22483;-80
2023/01/04 23:37:40;;;;;;;5.60;3.80;;;;;;;6.69;100.00;98249.39;213925;1310;22487;-78
2023/01/04 23:42:42;;;;;;;6.10;3.80;;;;;;;6.66;100.00;98248.52;214180;1294;22507;-78
2023/01/04 23:47:47;;;;;;;4.50;3.50;;;;;;;6.64;100.00;98246.64;213851;1310;22473;-78
2023/01/04 23:52:48;;;;;;;5.70;3.60;;;;;;;6.65;100.00;98242.91;213916;1310;22525;-79
2023/01/04 23:57:52;;;;;;;5.90;3.50;;;;;;;6.67;100.00;98225.66;214001;1298;24343;-77
